Time;durP1;ratioP1;P1;durP2;ratioP2;P2;SDS_P1;SDS_P2;PMS_P1;PMS_P2;Temp;Humidity;BMP_temperature;BMP_pressure;BME280_temperature;BME280_humidity;BME280_pressure;Samples;Min_cycle;Max_cycle;Signal;HPM_P1;HPM_P2
2022/01/10 00:01:59;;;;;;;24.70;12.50;;;;;;;5.66;62.61;99680.95;117338;1186;22851;-56
2022/01/10 00:04:36;;;;;;;24.70;12.10;;;;;;;5.69;62.47;99677.63;117271;1186;23044;-56
2022/01/10 00:07:05;;;;;;;24.70;12.10;;;;;;;5.71;62.44;99679.71;117391;1183;23496;-67
2022/01/10 00:09:34;;;;;;;27.20;12.60;;;;;;;5.72;62.47;99672.58;117321;1182;22835;-66
2022/01/10 00:12:22;;;;;;;24.10;12.20;;;;;;;5.74;62.52;99670.98;117270;1186;21847;-56
2022/01/10 00:14:50;;;;;;;27.00;12.60;;;;;;;5.74;62.35;99670.30;117367;1186;23602;-56
2022/01/10 00:17:18;;;;;;;36.50;12.80;;;;;;;5.75;62.32;99674.98;117361;1183;23448;-67
2022/01/10 00:19:46;;;;;;;33.30;13.20;;;;;;;5.75;62.06;99671.33;117338;1184;23654;-67
2022/01/10 00:22:15;;;;;;;35.30;13.50;;;;;;;5.71;62.00;99669.09;117321;1185;22982;-67
2022/01/10 00:24:43;;;;;;;31.30;12.50;;;;;;;5.68;61.88;99670.67;117316;1186;24148;-67
2022/01/10 00:27:12;;;;;;;28.30;12.80;;;;;;;5.66;61.87;99671.90;117310;1185;23631;-68
2022/01/10 00:29:40;;;;;;;34.40;12.50;;;;;;;5.63;61.96;99671.73;117429;1185;21861;-68
2022/01/10 00:32:08;;;;;;;33.90;12.40;;;;;;;5.58;61.88;99669.48;117403;1186;23634;-56
2022/01/10 00:34:38;;;;;;;30.10;10.80;;;;;;;5.55;61.98;99666.17;117383;1186;23512;-56
2022/01/10 00:37:06;;;;;;;38.20;12.50;;;;;;;5.51;61.89;99666.55;117422;1185;21909;-55
2022/01/10 00:39:35;;;;;;;31.60;12.50;;;;;;;5.49;61.73;99669.86;117336;1185;23641;-67
2022/01/10 00:42:03;;;;;;;31.40;12.00;;;;;;;5.46;61.80;99672.65;117313;1186;21853;-56
2022/01/10 00:44:38;;;;;;;29.90;12.80;;;;;;;5.44;62.03;99675.79;117331;1186;21900;-56
2022/01/10 00:47:06;;;;;;;31.60;12.00;;;;;;;5.42;61.79;99674.91;117324;1185;23738;-56
2022/01/10 00:49:34;;;;;;;34.60;11.00;;;;;;;5.39;61.88;99677.02;117393;1182;23583;-55
2022/01/10 00:52:04;;;;;;;23.10;11.10;;;;;;;5.35;62.03;99677.02;117422;1183;21866;-67
2022/01/10 00:54:34;;;;;;;21.50;10.80;;;;;;;5.32;61.80;99680.86;117367;1182;23700;-56
2022/01/10 00:57:03;;;;;;;33.70;11.90;;;;;;;5.29;61.78;99680.17;117388;1185;24149;-56
2022/01/10 00:59:31;;;;;;;27.50;11.60;;;;;;;5.24;62.07;99678.09;117283;1186;21885;-56
2022/01/10 01:01:59;;;;;;;36.00;11.60;;;;;;;5.19;61.69;99677.05;117316;1185;23471;-56
2022/01/10 01:04:28;;;;;;;37.80;10.90;;;;;;;5.14;61.80;99676.72;117414;1186;23599;-67
2022/01/10 01:06:56;;;;;;;26.80;12.70;;;;;;;5.11;61.75;99681.23;117426;1186;23461;-57
2022/01/10 01:09:29;;;;;;;22.90;10.80;;;;;;;5.09;62.03;99684.02;117397;1186;21922;-67
2022/01/10 01:12:44;;;;;;;31.40;9.80;;;;;;;5.08;61.97;99684.38;117430;1183;21923;-56
2022/01/10 01:14:55;;;;;;;27.70;9.70;;;;;;;5.05;61.80;99684.21;117490;1186;23475;-66
2022/01/10 01:25:14;;;;;;;21.40;9.30;;;;;;;5.04;61.87;99689.95;117384;1185;21845;-67
2022/01/10 01:27:43;;;;;;;21.50;7.50;;;;;;;5.07;62.22;99687.17;117395;1186;23490;-67
2022/01/10 01:30:12;;;;;;;21.30;8.10;;;;;;;5.08;62.13;99682.63;117441;1185;23013;-67
2022/01/10 01:32:40;;;;;;;21.30;8.80;;;;;;;5.06;62.04;99685.77;117341;1182;21853;-62
2022/01/10 01:35:08;;;;;;;15.50;8.20;;;;;;;5.05;61.99;99682.98;117431;1182;22924;-61
2022/01/10 01:37:38;;;;;;;26.30;8.90;;;;;;;5.07;62.10;99680.73;117391;1186;21974;-67
2022/01/10 01:40:08;;;;;;;28.00;8.20;;;;;;;5.08;62.11;99683.51;117391;1182;23445;-67
2022/01/10 01:42:40;;;;;;;23.50;8.60;;;;;;;5.07;62.04;99682.64;117313;1185;22044;-55
2022/01/10 01:45:10;;;;;;;28.30;9.70;;;;;;;5.06;61.75;99683.16;117383;1182;21883;-56
2022/01/10 01:47:38;;;;;;;25.80;8.60;;;;;;;5.04;62.11;99682.30;117399;1182;21860;-67
2022/01/10 01:50:07;;;;;;;24.00;8.20;;;;;;;5.04;61.97;99683.33;117371;1186;21851;-67
2022/01/10 01:52:36;;;;;;;24.30;8.30;;;;;;;5.02;62.02;99682.30;117392;1185;22925;-59
2022/01/10 01:55:05;;;;;;;28.20;8.10;;;;;;;5.01;61.96;99686.30;117411;1180;21854;-56
2022/01/10 01:57:33;;;;;;;14.10;7.50;;;;;;;5.00;62.22;99689.59;117327;1186;21857;-55
2022/01/10 02:00:03;;;;;;;25.00;9.40;;;;;;;4.99;62.17;99690.64;117390;1185;23736;-56
2022/01/10 02:02:32;;;;;;;23.90;8.90;;;;;;;4.98;62.14;99692.05;117300;1185;22164;-67
2022/01/10 02:05:06;;;;;;;24.90;8.90;;;;;;;4.97;62.14;99697.59;117349;1182;22638;-55
2022/01/10 02:07:37;;;;;;;25.50;10.00;;;;;;;4.96;62.02;99694.64;117376;1186;22986;-66
2022/01/10 02:10:05;;;;;;;19.60;9.00;;;;;;;4.98;61.93;99689.25;117361;1184;21961;-67
2022/01/10 02:12:34;;;;;;;21.00;9.50;;;;;;;4.99;62.02;99690.46;117390;1181;22966;-65
2022/01/10 02:15:03;;;;;;;18.50;9.20;;;;;;;5.00;62.17;99687.16;117407;1186;23448;-67
2022/01/10 02:17:36;;;;;;;30.50;8.70;;;;;;;5.02;62.05;99685.08;117361;1185;22059;-55
2022/01/10 02:20:06;;;;;;;20.40;7.80;;;;;;;5.02;61.92;99682.64;117375;1185;23573;-56
2022/01/10 02:22:36;;;;;;;18.10;8.90;;;;;;;5.04;61.89;99687.68;117390;1183;21852;-56
2022/01/10 02:25:05;;;;;;;19.10;8.10;;;;;;;5.07;62.30;99689.26;117283;1185;23729;-55
2022/01/10 02:27:33;;;;;;;19.40;8.50;;;;;;;5.08;62.08;99692.20;117394;1186;21852;-55
2022/01/10 02:30:01;;;;;;;20.20;8.60;;;;;;;5.10;61.93;99697.41;117240;1185;23613;-68
2022/01/10 02:32:34;;;;;;;16.60;9.50;;;;;;;5.12;62.12;99697.23;117350;1182;23552;-67
2022/01/10 02:35:03;;;;;;;18.90;8.90;;;;;;;5.13;61.92;99696.20;117360;1182;21904;-67
2022/01/10 02:37:33;;;;;;;19.70;8.90;;;;;;;5.15;62.08;99698.80;117314;1185;21902;-55
2022/01/10 02:40:06;;;;;;;17.80;9.80;;;;;;;5.16;62.20;99696.20;117363;1183;23461;-55
2022/01/10 02:42:36;;;;;;;15.70;7.70;;;;;;;5.17;62.00;99695.84;117369;1185;23656;-55
2022/01/10 02:45:05;;;;;;;22.10;8.80;;;;;;;5.17;61.90;99697.41;117356;1186;21851;-56
2022/01/10 02:47:36;;;;;;;19.30;8.70;;;;;;;5.20;61.94;99697.73;117375;1185;23479;-56
2022/01/10 02:50:05;;;;;;;23.40;9.70;;;;;;;5.23;62.19;99701.76;117411;1182;23552;-55
2022/01/10 02:52:33;;;;;;;15.20;8.20;;;;;;;5.24;62.23;99702.63;117415;1183;22503;-66
2022/01/10 02:55:02;;;;;;;21.90;9.90;;;;;;;5.27;62.22;99704.36;117413;1185;22975;-67
2022/01/10 02:57:31;;;;;;;21.00;8.50;;;;;;;5.24;62.16;99704.70;117379;1183;22914;-55
2022/01/10 03:00:00;;;;;;;15.30;8.00;;;;;;;5.25;62.15;99704.36;117420;1183;21940;-55
2022/01/10 03:02:33;;;;;;;17.50;8.60;;;;;;;5.25;62.19;99705.92;117458;1182;22656;-66
2022/01/10 03:05:03;;;;;;;18.70;9.00;;;;;;;5.26;62.32;99708.02;117334;1176;21855;-66
2022/01/10 03:07:31;;;;;;;31.30;8.60;;;;;;;5.27;62.10;99708.89;117376;1185;21904;-66
2022/01/10 03:10:00;;;;;;;18.80;8.60;;;;;;;5.30;61.99;99712.36;117329;1182;23433;-66
2022/01/10 03:12:31;;;;;;;18.30;9.10;;;;;;;5.33;62.12;99715.13;117319;1185;23670;-55
2022/01/10 03:15:00;;;;;;;18.50;8.40;;;;;;;5.36;62.40;99717.38;117378;1182;23445;-54
2022/01/10 03:17:28;;;;;;;16.90;8.90;;;;;;;5.40;62.17;99719.81;117398;1182;22649;-55
2022/01/10 03:19:56;;;;;;;23.60;8.50;;;;;;;5.43;62.21;99718.60;117394;1182;22867;-67
2022/01/10 03:22:26;;;;;;;16.20;8.40;;;;;;;5.45;62.22;99718.06;117394;1185;23484;-55
2022/01/10 03:24:54;;;;;;;15.50;7.80;;;;;;;5.47;62.20;99725.02;117423;1182;23569;-55
2022/01/10 03:27:23;;;;;;;17.20;8.00;;;;;;;5.49;61.98;99727.98;117436;1183;23541;-55
2022/01/10 03:29:51;;;;;;;20.00;8.50;;;;;;;5.52;62.34;99729.71;117397;1185;24169;-54
2022/01/10 03:32:19;;;;;;;15.70;8.70;;;;;;;5.55;62.00;99733.36;117408;1185;21901;-55
2022/01/10 03:34:47;;;;;;;20.20;8.60;;;;;;;5.56;62.17;99738.58;117392;1186;23500;-54
2022/01/10 03:37:16;;;;;;;16.60;8.90;;;;;;;5.59;62.22;99741.36;117413;1185;23458;-55
2022/01/10 03:39:44;;;;;;;24.30;8.30;;;;;;;5.61;62.02;99745.19;117391;1185;23507;-54
2022/01/10 03:42:13;;;;;;;16.80;8.40;;;;;;;5.63;62.21;99747.45;117364;1186;21893;-55
2022/01/10 03:44:41;;;;;;;17.90;8.60;;;;;;;5.63;62.29;99743.09;117374;1183;23761;-66
2022/01/10 03:47:10;;;;;;;18.30;8.70;;;;;;;5.63;62.11;99746.22;117448;1185;23534;-67
2022/01/10 03:49:39;;;;;;;52.80;8.40;;;;;;;5.63;62.11;99743.27;117363;1185;21864;-67
2022/01/10 03:52:07;;;;;;;29.30;8.40;;;;;;;5.62;62.29;99750.75;117399;1182;23501;-67
2022/01/10 03:54:35;;;;;;;27.80;9.10;;;;;;;5.59;61.95;99751.27;117350;1185;23573;-55
2022/01/10 03:57:03;;;;;;;33.20;9.20;;;;;;;5.52;62.02;99752.86;117376;1183;23614;-55
2022/01/10 03:59:33;;;;;;;32.30;8.60;;;;;;;5.46;61.90;99758.44;117333;1184;23661;-66
2022/01/10 04:02:01;;;;;;;18.10;8.80;;;;;;;5.42;61.99;99763.14;117411;1186;21988;-55
2022/01/10 04:04:32;;;;;;;29.50;9.40;;;;;;;5.39;61.83;99770.63;117377;1185;22957;-55
2022/01/10 04:07:00;;;;;;;;;;;;;;;5.36;61.88;99772.71;117359;1185;22794;-55
2022/01/10 04:09:30;;;;;;;23.10;10.30;;;;;;;5.32;61.69;99771.66;117355;1185;23316;-59
2022/01/10 04:11:58;;;;;;;17.40;8.70;;;;;;;5.27;61.76;99773.23;117286;1185;23665;-55
2022/01/10 04:14:28;;;;;;;18.00;9.10;;;;;;;5.25;61.72;99777.24;117358;1182;23448;-66
2022/01/10 04:16:57;;;;;;;21.50;9.70;;;;;;;5.23;62.00;99779.33;117411;1186;24158;-55
2022/01/10 04:19:25;;;;;;;24.30;8.80;;;;;;;5.21;61.99;99780.91;117401;1185;21857;-53
2022/01/10 04:21:53;;;;;;;26.30;10.00;;;;;;;5.18;61.79;99786.46;117394;1185;21855;-66
2022/01/10 04:24:21;;;;;;;16.30;8.60;;;;;;;5.16;62.00;99787.15;117281;1182;23656;-62
2022/01/10 04:26:49;;;;;;;21.40;8.50;;;;;;;5.15;62.13;99792.20;117371;1183;23619;-66
2022/01/10 04:29:18;;;;;;;20.20;8.30;;;;;;;5.14;62.05;99794.27;117379;1186;23500;-54
2022/01/10 04:31:46;;;;;;;19.90;10.20;;;;;;;5.12;61.78;99794.10;117419;1183;23448;-57
2022/01/10 04:34:16;;;;;;;19.10;9.10;;;;;;;5.10;62.16;99796.36;117400;1182;21957;-66
2022/01/10 04:36:44;;;;;;;20.20;10.40;;;;;;;5.12;61.83;99796.70;117270;1182;24160;-54
2022/01/10 04:39:12;;;;;;;25.10;11.60;;;;;;;5.12;62.00;99801.06;117338;1182;23612;-54
2022/01/10 04:41:41;;;;;;;20.60;10.90;;;;;;;5.10;61.99;99802.11;117412;1185;23449;-65
2022/01/10 04:44:09;;;;;;;25.00;10.80;;;;;;;5.10;61.98;99807.16;117341;1182;23448;-54
2022/01/10 04:46:38;;;;;;;23.00;11.00;;;;;;;5.12;62.10;99811.32;117407;1185;23334;-66
2022/01/10 04:49:12;;;;;;;22.20;11.10;;;;;;;5.15;62.02;99810.63;117444;1186;23467;-66
2022/01/10 04:51:40;;;;;;;22.80;11.80;;;;;;;5.15;61.90;99812.55;117388;1186;23575;-65
2022/01/10 04:54:08;;;;;;;22.30;10.80;;;;;;;5.15;61.99;99816.72;117424;1181;23135;-66
2022/01/10 04:56:37;;;;;;;24.60;11.30;;;;;;;5.16;62.23;99823.67;117353;1182;21864;-66
2022/01/10 04:59:05;;;;;;;24.60;12.60;;;;;;;5.17;62.12;99824.02;117394;1183;21857;-66
2022/01/10 05:01:33;;;;;;;19.30;11.40;;;;;;;5.18;62.09;99827.69;117304;1186;21960;-54
2022/01/10 05:04:02;;;;;;;21.20;11.80;;;;;;;5.20;61.93;99827.52;117398;1183;21911;-65
2022/01/10 05:06:32;;;;;;;23.30;13.20;;;;;;;5.14;61.93;99826.27;117387;1186;23571;-66
2022/01/10 05:09:01;;;;;;;23.80;13.20;;;;;;;5.19;62.09;99829.77;117407;1182;23589;-54
2022/01/10 05:11:38;;;;;;;22.20;12.80;;;;;;;5.20;61.99;99833.26;117330;1182;23472;-66
2022/01/10 05:14:07;;;;;;;20.60;10.80;;;;;;;5.19;62.00;99837.07;117384;1186;22101;-54
2022/01/10 05:16:35;;;;;;;20.00;10.90;;;;;;;5.18;62.02;99839.70;117334;1184;23448;-67
2022/01/10 05:19:04;;;;;;;18.90;10.80;;;;;;;5.20;62.11;99845.27;117368;1185;23455;-66
2022/01/10 05:21:32;;;;;;;20.80;10.50;;;;;;;5.23;61.91;99852.73;117402;1185;23448;-67
2022/01/10 05:24:01;;;;;;;19.90;11.00;;;;;;;5.24;61.89;99854.48;117400;1188;21903;-66
2022/01/10 05:26:29;;;;;;;18.40;11.10;;;;;;;5.24;62.08;99859.88;117411;1186;23655;-66
2022/01/10 05:28:59;;;;;;;19.50;11.10;;;;;;;5.23;62.08;99860.91;117417;1181;21862;-66
2022/01/10 05:31:29;;;;;;;14.50;9.00;;;;;;;5.23;62.09;99867.87;117444;1185;22658;-54
2022/01/10 05:33:57;;;;;;;17.10;10.40;;;;;;;5.24;62.10;99868.75;117390;1182;21999;-67
2022/01/10 05:36:25;;;;;;;21.10;12.00;;;;;;;5.25;61.95;99871.88;117442;1183;22347;-67
2022/01/10 05:38:54;;;;;;;15.80;9.70;;;;;;;5.26;62.11;99872.91;117375;1186;21973;-55
2022/01/10 05:41:22;;;;;;;22.70;11.90;;;;;;;5.28;61.92;99872.23;117307;1182;22749;-54
2022/01/10 05:43:51;;;;;;;18.00;12.20;;;;;;;5.30;61.99;99877.27;117316;1185;22813;-55
2022/01/10 05:46:20;;;;;;;18.70;11.50;;;;;;;5.35;62.13;99879.36;117355;1185;23585;-54
2022/01/10 05:48:52;;;;;;;23.40;12.60;;;;;;;5.35;62.18;99880.40;117374;1184;21899;-66
2022/01/10 05:51:20;;;;;;;20.10;9.80;;;;;;;5.37;62.13;99882.49;117459;1185;21905;-65
2022/01/10 05:53:49;;;;;;;25.30;12.00;;;;;;;5.40;62.27;99882.33;117427;1184;21854;-66
2022/01/10 05:56:18;;;;;;;19.70;10.00;;;;;;;5.42;62.14;99887.73;117147;1187;21858;-65
2022/01/10 05:58:46;;;;;;;16.80;8.90;;;;;;;5.44;61.91;99888.42;117373;1185;23679;-66
2022/01/10 06:01:15;;;;;;;16.30;9.00;;;;;;;5.46;62.08;99891.20;117328;1182;22629;-66
2022/01/10 06:03:44;;;;;;;27.40;10.80;;;;;;;5.48;62.02;99897.84;117499;1182;22639;-54
2022/01/10 06:06:12;;;;;;;15.20;9.30;;;;;;;5.49;62.17;99899.75;117377;1181;21860;-66
2022/01/10 06:08:41;;;;;;;18.20;9.80;;;;;;;5.51;62.25;99904.96;117442;1183;22037;-53
2022/01/10 06:11:09;;;;;;;22.60;11.30;;;;;;;5.54;62.16;99908.27;117317;1185;23561;-68
2022/01/10 06:13:38;;;;;;;26.10;9.90;;;;;;;5.56;62.39;99915.05;117324;1183;24169;-54
2022/01/10 06:16:06;;;;;;;18.90;9.70;;;;;;;5.58;61.92;99916.10;117262;1185;23068;-66
2022/01/10 06:18:52;;;;;;;16.80;8.90;;;;;;;5.62;62.05;99920.11;117254;1183;21937;-67
2022/01/10 06:21:25;;;;;;;29.30;10.50;;;;;;;5.64;61.96;99920.98;117264;1185;23651;-67
2022/01/10 06:23:53;;;;;;;16.10;9.40;;;;;;;5.64;62.20;99924.64;117335;1182;21905;-54
2022/01/10 06:26:22;;;;;;;12.00;8.40;;;;;;;5.62;62.08;99927.77;117325;1185;22059;-67
2022/01/10 06:28:50;;;;;;;14.00;8.50;;;;;;;5.60;61.77;99930.38;117280;1182;22099;-55
2022/01/10 06:31:20;;;;;;;;;;;;;;;5.58;61.85;99931.07;117226;1185;21839;-55
2022/01/10 06:33:50;;;;;;;15.50;7.20;;;;;;;5.58;61.99;99936.13;117270;1185;21866;-65
2022/01/10 06:36:19;;;;;;;12.30;7.30;;;;;;;5.58;62.02;99939.42;117304;1185;21894;-55
2022/01/10 06:38:48;;;;;;;12.30;8.00;;;;;;;5.57;62.10;99944.47;117355;1185;22648;-66
2022/01/10 06:41:20;;;;;;;11.20;7.50;;;;;;;5.58;62.07;99948.48;117261;1186;21954;-66
2022/01/10 06:43:49;;;;;;;10.40;6.50;;;;;;;5.59;62.20;99953.17;117350;1185;24296;-54
2022/01/10 06:46:19;;;;;;;15.00;7.20;;;;;;;5.60;62.11;99954.58;117281;1186;23496;-55
2022/01/10 06:48:47;;;;;;;9.80;6.40;;;;;;;5.61;62.29;99958.23;117371;1186;22945;-59
2022/01/10 06:51:16;;;;;;;13.00;6.50;;;;;;;5.63;62.08;99963.63;117331;1185;21852;-55
2022/01/10 06:53:44;;;;;;;11.30;6.50;;;;;;;5.64;62.15;99965.02;117322;1185;23491;-66
2022/01/10 06:56:12;;;;;;;9.80;6.80;;;;;;;5.65;62.30;99967.29;117369;1183;23497;-55
2022/01/10 06:58:40;;;;;;;11.00;7.40;;;;;;;5.65;62.29;99970.42;117327;1182;22855;-66
2022/01/10 07:01:08;;;;;;;10.00;5.90;;;;;;;5.64;62.30;99973.02;117330;1182;21861;-66
2022/01/10 07:03:37;;;;;;;9.90;7.00;;;;;;;5.66;62.24;99978.95;117210;1182;22833;-55
2022/01/10 07:06:05;;;;;;;11.60;7.00;;;;;;;5.69;62.00;99981.57;119159;1185;21929;-55
2022/01/10 07:08:34;;;;;;;8.90;6.50;;;;;;;5.71;62.45;99985.58;117322;1183;23503;-66
2022/01/10 07:11:06;;;;;;;8.00;6.20;;;;;;;5.72;62.21;99989.75;117387;1182;21851;-65
2022/01/10 07:13:34;;;;;;;10.80;7.50;;;;;;;5.71;62.16;99989.41;117405;1183;22005;-66
2022/01/10 07:16:03;;;;;;;9.30;6.70;;;;;;;5.69;62.45;99992.19;117320;1185;21863;-66
2022/01/10 07:18:31;;;;;;;10.20;6.50;;;;;;;5.66;62.43;99995.48;117439;1186;21857;-55
2022/01/10 07:21:00;;;;;;;9.50;6.80;;;;;;;5.65;62.49;100001.05;117375;1181;24197;-55
2022/01/10 07:23:29;;;;;;;9.00;6.50;;;;;;;5.64;62.48;100000.54;117368;1185;21841;-66
2022/01/10 07:25:57;;;;;;;11.20;6.40;;;;;;;5.63;62.39;100001.39;117432;1182;21857;-66
2022/01/10 07:28:25;;;;;;;9.10;6.40;;;;;;;5.61;62.38;100000.35;117361;1184;21855;-55
2022/01/10 07:30:54;;;;;;;10.10;7.10;;;;;;;5.61;62.64;100002.44;117411;1185;22029;-55
2022/01/10 07:33:23;;;;;;;10.80;6.80;;;;;;;5.63;62.48;100002.45;117434;1185;21875;-66
2022/01/10 07:35:50;;;;;;;8.50;6.60;;;;;;;5.64;62.50;100001.75;117403;1183;22937;-66
2022/01/10 07:38:19;;;;;;;11.90;6.50;;;;;;;5.64;62.34;100005.93;117383;1185;21897;-55
2022/01/10 07:40:47;;;;;;;10.80;7.80;;;;;;;5.66;62.56;100011.33;117396;1182;24147;-67
2022/01/10 07:43:15;;;;;;;10.60;7.50;;;;;;;5.71;62.79;100008.73;117392;1183;23514;-55
2022/01/10 07:45:44;;;;;;;9.90;7.00;;;;;;;5.71;62.62;100011.35;117387;1182;23617;-55
2022/01/10 07:48:12;;;;;;;12.10;7.60;;;;;;;5.70;62.40;100014.30;117407;1185;23553;-65
2022/01/10 07:50:40;;;;;;;9.90;7.20;;;;;;;5.71;62.56;100015.52;117413;1182;23694;-55
2022/01/10 07:53:09;;;;;;;11.30;7.30;;;;;;;5.71;62.33;100012.04;117422;1186;23807;-66
2022/01/10 07:55:37;;;;;;;10.40;7.00;;;;;;;5.72;62.32;100015.88;117428;1185;24159;-55
2022/01/10 07:58:06;;;;;;;11.00;7.50;;;;;;;5.73;62.67;100012.91;117372;1188;23604;-67
2022/01/10 08:00:34;;;;;;;10.00;7.10;;;;;;;5.75;62.63;100012.20;117382;1182;23480;-53
2022/01/10 08:03:03;;;;;;;9.70;6.70;;;;;;;5.79;62.38;100006.82;117443;1185;24656;-67
2022/01/10 08:05:32;;;;;;;10.40;7.40;;;;;;;5.83;62.50;100004.91;117436;1184;21895;-67
2022/01/10 08:08:00;;;;;;;9.00;6.40;;;;;;;5.84;62.66;100004.04;117388;1188;21958;-68
2022/01/10 08:10:29;;;;;;;10.40;7.10;;;;;;;5.87;62.67;100000.56;117382;1185;23858;-67
2022/01/10 08:12:57;;;;;;;9.90;7.40;;;;;;;5.90;62.53;100002.31;117364;1183;21902;-54
2022/01/10 08:15:26;;;;;;;11.20;7.60;;;;;;;5.92;62.37;100003.71;117394;1185;21891;-67
2022/01/10 08:17:54;;;;;;;9.40;7.30;;;;;;;5.96;62.68;100005.42;117407;1182;23225;-54
2022/01/10 08:20:23;;;;;;;11.10;8.00;;;;;;;5.99;62.45;100001.61;117394;1176;21861;-68
2022/01/10 08:22:59;;;;;;;10.60;7.90;;;;;;;6.00;62.55;100004.78;117342;1186;23596;-53
2022/01/10 08:25:27;;;;;;;9.90;7.00;;;;;;;6.02;62.57;100003.91;117343;1185;21918;-53
2022/01/10 08:27:56;;;;;;;10.80;7.50;;;;;;;6.04;62.55;100008.27;117354;1182;23579;-53
2022/01/10 08:30:26;;;;;;;9.90;7.30;;;;;;;6.07;62.39;100009.84;117370;1186;22322;-68
2022/01/10 08:32:54;;;;;;;10.90;7.80;;;;;;;6.11;63.02;100007.05;117343;1185;22957;-54
2022/01/10 08:35:22;;;;;;;10.60;8.30;;;;;;;6.14;62.56;100007.76;117369;1185;21878;-67
2022/01/10 08:37:51;;;;;;;12.60;8.50;;;;;;;6.15;62.38;100008.10;117408;1182;23583;-53
2022/01/10 08:40:19;;;;;;;10.60;8.30;;;;;;;6.16;62.58;100000.43;117441;1183;23567;-53
2022/01/10 08:42:48;;;;;;;13.70;8.40;;;;;;;6.19;62.24;100000.77;117428;1186;23537;-67
2022/01/10 08:45:16;;;;;;;10.30;7.90;;;;;;;6.22;62.51;99999.20;117424;1182;22953;-53
2022/01/10 08:47:46;;;;;;;11.70;8.70;;;;;;;6.22;62.25;100000.41;117391;1185;23576;-66
2022/01/10 08:50:14;;;;;;;8.50;6.10;;;;;;;6.14;62.42;99999.91;117348;1185;21866;-54
2022/01/10 08:52:43;;;;;;;10.40;7.80;;;;;;;6.10;62.66;100003.40;117365;1182;24053;-66
2022/01/10 08:55:11;;;;;;;13.10;8.90;;;;;;;6.08;62.79;100002.52;117401;1182;23493;-54
2022/01/10 08:57:41;;;;;;;9.60;7.40;;;;;;;6.08;62.47;99995.55;117336;1182;22771;-54
2022/01/10 09:00:10;;;;;;;10.30;8.30;;;;;;;6.07;62.65;99999.21;117407;1182;21851;-67
2022/01/10 09:02:38;;;;;;;9.80;7.80;;;;;;;6.09;62.79;100003.05;117325;1185;23554;-67
2022/01/10 09:05:08;;;;;;;9.00;7.40;;;;;;;6.07;62.66;100008.10;117372;1182;23520;-54
2022/01/10 09:07:36;;;;;;;9.10;7.00;;;;;;;6.08;62.59;100008.80;117424;1185;21850;-66
2022/01/10 09:10:05;;;;;;;9.70;7.70;;;;;;;6.10;62.49;100008.27;117384;1185;23448;-66
2022/01/10 09:12:34;;;;;;;9.20;6.90;;;;;;;6.13;62.52;100007.77;117308;1185;23499;-68
2022/01/10 09:15:02;;;;;;;9.80;7.80;;;;;;;6.15;62.92;100009.66;117347;1185;23644;-67
2022/01/10 09:17:31;;;;;;;12.30;7.90;;;;;;;6.16;62.81;100009.50;117258;1185;23704;-53
2022/01/10 09:19:59;;;;;;;10.00;7.40;;;;;;;6.18;62.74;100008.98;117356;1185;23556;-54
2022/01/10 09:22:28;;;;;;;9.80;7.70;;;;;;;6.18;62.82;100012.45;117579;1185;22948;-56
2022/01/10 09:24:56;;;;;;;8.80;7.10;;;;;;;6.20;63.06;100008.44;117499;1186;22992;-65
2022/01/10 09:27:24;;;;;;;10.00;7.60;;;;;;;6.22;62.80;100012.80;117366;1183;22906;-55
2022/01/10 09:29:53;;;;;;;10.10;8.00;;;;;;;6.23;63.11;100012.62;117409;1185;23475;-54
2022/01/10 09:32:21;;;;;;;11.70;8.00;;;;;;;6.24;63.02;100013.49;117436;1185;23670;-66
2022/01/10 09:34:49;;;;;;;11.80;8.60;;;;;;;6.24;62.73;100014.52;117426;1186;21853;-66
2022/01/10 09:37:18;;;;;;;14.50;8.80;;;;;;;6.23;62.91;100016.63;117389;1183;23526;-54
2022/01/10 09:39:46;;;;;;;14.10;8.80;;;;;;;6.23;62.86;100020.30;117388;1182;21912;-53
2022/01/10 09:42:15;;;;;;;9.30;7.60;;;;;;;6.23;62.97;100025.00;117375;1177;22322;-54
2022/01/10 09:44:43;;;;;;;14.90;8.40;;;;;;;6.22;62.99;100027.60;117358;1185;23650;-55
2022/01/10 09:47:12;;;;;;;9.50;7.60;;;;;;;6.19;62.97;100027.42;117302;1185;23551;-56
2022/01/10 09:49:40;;;;;;;9.40;7.40;;;;;;;6.16;62.63;100031.27;117189;1182;23551;-55
2022/01/10 09:52:10;;;;;;;9.80;7.80;;;;;;;6.17;62.86;100033.19;117347;1185;23573;-67
2022/01/10 09:54:39;;;;;;;11.90;8.20;;;;;;;6.18;62.90;100033.18;117384;1183;23478;-54
2022/01/10 09:57:09;;;;;;;12.00;8.40;;;;;;;6.19;62.94;100040.66;117433;1185;21930;-54
2022/01/10 09:59:40;;;;;;;9.90;7.50;;;;;;;6.20;62.75;100041.20;117412;1182;23017;-65
2022/01/10 10:02:10;;;;;;;11.40;8.30;;;;;;;6.21;62.67;100042.94;117400;1182;22915;-67
2022/01/10 10:04:39;;;;;;;10.10;7.80;;;;;;;6.22;62.81;100044.33;117359;1182;22167;-66
2022/01/10 10:07:07;;;;;;;9.10;8.10;;;;;;;6.24;63.02;100045.19;117379;1185;24130;-66
2022/01/10 10:09:36;;;;;;;11.10;8.40;;;;;;;6.26;62.57;100044.34;117409;1182;22751;-65
2022/01/10 10:12:05;;;;;;;11.20;8.70;;;;;;;6.26;62.82;100044.52;117380;1186;21855;-66
2022/01/10 10:14:34;;;;;;;10.10;7.80;;;;;;;6.26;62.76;100045.55;117358;1186;21855;-53
2022/01/10 10:17:11;;;;;;;11.60;9.10;;;;;;;6.27;63.06;100043.11;117228;1185;23618;-54
2022/01/10 10:19:40;;;;;;;13.30;9.50;;;;;;;6.28;62.77;100048.87;117392;1186;21862;-54
2022/01/10 10:22:11;;;;;;;12.30;9.30;;;;;;;6.28;62.82;100047.81;117098;1182;22842;-53
2022/01/10 10:24:39;;;;;;;13.00;9.70;;;;;;;6.29;62.77;100046.59;117234;1182;22806;-66
2022/01/10 10:27:08;;;;;;;14.40;10.90;;;;;;;6.31;62.95;100047.82;117426;1183;22884;-67
2022/01/10 10:29:41;;;;;;;13.20;9.80;;;;;;;6.33;62.72;100050.78;117364;1182;21870;-54
2022/01/10 10:32:09;;;;;;;13.10;9.80;;;;;;;6.32;62.91;100050.61;117346;1182;23522;-67
2022/01/10 10:34:38;;;;;;;15.00;10.80;;;;;;;6.34;62.74;100052.35;119285;1180;21863;-55
2022/01/10 10:37:13;;;;;;;13.20;10.20;;;;;;;6.36;62.98;100052.01;117374;1182;23288;-65
2022/01/10 10:39:43;;;;;;;14.10;10.40;;;;;;;6.34;62.80;100050.61;117408;1185;21860;-54
2022/01/10 10:42:14;;;;;;;14.90;10.60;;;;;;;6.32;63.12;100047.30;117410;1185;21853;-57
2022/01/10 10:44:45;;;;;;;16.50;11.80;;;;;;;6.30;62.73;100051.31;117422;1188;21857;-54
2022/01/10 10:47:14;;;;;;;15.30;10.90;;;;;;;6.28;62.87;100050.08;117407;1184;22966;-54
2022/01/10 10:49:46;;;;;;;15.30;10.80;;;;;;;6.29;62.84;100048.17;117420;1182;24168;-66
2022/01/10 10:52:15;;;;;;;17.60;11.50;;;;;;;6.32;62.59;100049.56;117317;1185;21858;-54
2022/01/10 10:54:43;;;;;;;15.80;10.90;;;;;;;6.33;62.61;100050.61;117315;1183;22966;-66
2022/01/10 10:57:14;;;;;;;17.10;11.00;;;;;;;6.31;62.33;100047.98;117322;1185;23448;-66
2022/01/10 10:59:45;;;;;;;14.20;10.70;;;;;;;6.29;62.55;100043.29;117363;1186;21864;-66
2022/01/10 11:02:13;;;;;;;14.10;11.00;;;;;;;6.26;62.70;100041.37;117342;1182;21854;-67
2022/01/10 11:04:42;;;;;;;15.10;11.00;;;;;;;6.25;62.67;100044.33;117343;1185;22671;-54
2022/01/10 11:07:11;;;;;;;16.90;11.80;;;;;;;6.23;62.83;100044.50;117360;1185;22901;-54
2022/01/10 11:10:05;;;;;;;;;;;;;;;6.22;62.65;100044.67;117322;1186;24245;-66
2022/01/10 11:12:34;;;;;;;15.40;11.70;;;;;;;6.21;62.87;100047.29;117338;1185;21916;-67
2022/01/10 11:15:03;;;;;;;14.20;10.90;;;;;;;6.20;62.81;100044.86;118106;1182;21899;-66
2022/01/10 11:17:32;;;;;;;16.80;11.90;;;;;;;6.21;62.69;100044.68;117370;1183;21910;-53
2022/01/10 11:20:13;;;;;;;16.80;12.00;;;;;;;6.23;62.50;100046.42;117357;1185;22960;-64
2022/01/10 11:22:45;;;;;;;14.00;11.20;;;;;;;6.25;62.76;100049.21;117394;1182;23585;-54
2022/01/10 11:25:28;;;;;;;17.50;12.80;;;;;;;6.27;62.73;100047.64;117317;1185;21856;-54
2022/01/10 11:28:00;;;;;;;17.70;12.40;;;;;;;6.26;62.78;100051.83;117358;1182;22845;-54
2022/01/10 11:30:30;;;;;;;19.10;13.40;;;;;;;6.29;63.13;100055.13;117401;1185;21905;-66
2022/01/10 11:33:09;;;;;;;16.30;12.90;;;;;;;6.34;62.83;100055.14;117433;1185;23554;-67
2022/01/10 11:36:03;;;;;;;16.50;12.20;;;;;;;6.39;62.86;100061.07;117360;1182;23597;-53
2022/01/10 11:38:36;;;;;;;17.50;13.50;;;;;;;6.43;62.72;100070.13;117405;1185;22922;-54
2022/01/10 11:41:24;;;;;;;16.00;12.80;;;;;;;6.43;62.76;100075.70;117422;1186;21841;-54